Decoded Metar for LFSB (MULHOUSE in FRANCE) (IATA:MLH) | Meteo·Mobile Aviation Weather
aviador You're here:

LFSB Decoded Metar

MULHOUSE in FRANCE
Report Time2018-10-18 15:30:00
UTC Time2018-10-18 15:51:59
Flight Rules vfr VFR
Wind340° at 05 kt
W.Decomp.*RWY 33: 4.9 kt HW 0.8 kt RCW
RWY 26: 1.0 kt HW 4.9 kt RCW
W.Rank340° ranks 12
Current wind is below 340° avg. (5.6)
Visibility9999 m
Phenomena:N/A
Clouds:N/A
Expected CloudBase > 3,200 ft AGL from Temp-Dew spread
CeilingNone
Temp19°C (ISA +6)
Dew Point11°C (60% RH)
AAT17.5°C
QNH1017 hPa
Density Alt1,608 ft
Elevation889 ft
Report Wrong Elevation
Raw Report
METAR LFSB 181530Z 34005KT 310V010 CAVOK 19/11 Q1017 NOSIG=

Extra information for LFSB:More info

Metar Taf Metar & Taf Last 4 Metars F.Rules Stats Wind Profile Meteogram Temp Stats Airport Information Weather charts Add Link Nearby VenuesMetar ALERT Operation Metar Decoded Social comments